Hovedside
METAR-TAF:

METAR-TAF

Lufthavner :

Palma de Mallorca, Spania

Son Sant Joan lufthavn

breddegrad: 39-33N, lengdegrad: 002-44E, høyde over havet: 4 m

Gjeldene værobservasjon

Denne rapporten ble laget for 26 minutter siden, klokken 21:00 UTC
Vind 2 kt fra Nord-nordøst
Temperatur 11°C
Luftfuktighet 82%
Trykk 1021 hPa
Sikt 10 km eller mer
Få skyer i en høyde av 2200 ft
Spredte skyer i en høyde av 3300 ft

METAR: LEPA 182100Z 03002KT 9999 FEW022 SCT033 11/08 Q1021 NOSIG

Tid: 22:26 (21:26 UTC)

Varsel

Denne rapporten ble laget for 4 timer og 26 minutter siden, klokken 17:00 UTC
Varsel gyldig fra 18. klokken 18 UTC til 19. klokken 18 UTC
Vind 7 kt fra Sør-sørvest
Sikt 10 km eller mer
Få skyer i en høyde av 2000 ft
Blir
fra 18. klokken 18 UTC til 18. klokken 20 UTC
Vind 3 kt fra skiftende retning
Blir
fra 19. klokken 10 UTC til 19. klokken 12 UTC
Vind 8 kt fra Vest-sørvest

TAF: LEPA 181700Z 1818/1918 21007KT 9999 FEW020 TX17/1913Z TN06/1907Z BECMG 1818/1820 VRB03KT BECMG 1910/1912 24008KT

Værobservasjoner og værvarsel for over 4000 flyplasser (METAR- og TAF-rapporter).

Tilgjengelige stasjoner er representert av de røde og gule prikkene på kartet.

Hold musepekeren over prikken for å se navnet på stasjonen.

Klikk så for å se værobservasjoner og -varsler.

For å forandre kartet kan du klikke på den grønne knappen med svart kryss for å zoome inn, på den grønne knappen med strek for å zoome ut, eller på de grønne pilene for å se tilstøtende kart.


METAR-TAF: